createdAt,value
2019-02-12T00:02:38.405Z,85.52
2019-02-12T00:07:33.079Z,86.41
2019-02-12T00:12:27.653Z,86.58
2019-02-12T00:17:22.331Z,86.38
2019-02-12T00:22:16.931Z,85.69
2019-02-12T00:27:11.522Z,85.92
2019-02-12T00:32:06.097Z,85.87
2019-02-12T00:37:00.712Z,86.31
2019-02-12T00:41:55.284Z,85.71
2019-02-12T00:46:49.902Z,85.73
2019-02-12T00:51:44.477Z,86.16
2019-02-12T00:56:39.075Z,86.28
2019-02-12T01:01:33.650Z,85.55
2019-02-12T01:06:28.248Z,84.46
2019-02-12T01:11:22.811Z,83.91
2019-02-12T01:16:17.412Z,83.30
2019-02-12T01:21:11.978Z,83.53
2019-02-12T01:26:06.573Z,83.75
2019-02-12T01:31:01.155Z,83.73
2019-02-12T01:35:55.760Z,82.86
2019-02-12T01:40:50.403Z,83.51
2019-02-12T01:45:44.999Z,83.30
2019-02-12T01:50:39.589Z,83.08
2019-02-12T01:55:34.171Z,83.70
2019-02-12T02:00:28.816Z,84.72
2019-02-12T02:05:23.425Z,85.25
2019-02-12T02:10:18.855Z,86.02
2019-02-12T02:15:14.684Z,86.80
2019-02-12T02:20:15.294Z,86.34
2019-02-12T02:25:12.895Z,86.34
2019-02-12T02:30:11.790Z,85.85
2019-02-12T02:35:07.169Z,85.74
2019-02-12T02:40:01.741Z,85.46
2019-02-12T02:44:56.326Z,84.27
2019-02-12T02:49:50.898Z,85.17
2019-02-12T02:54:45.502Z,85.55
2019-02-12T02:59:40.074Z,85.81
2019-02-12T03:04:34.664Z,85.94
2019-02-12T03:09:29.234Z,85.53
2019-02-12T03:14:23.840Z,84.96
2019-02-12T03:19:18.420Z,85.01
2019-02-12T03:24:13.020Z,85.29
2019-02-12T03:29:07.604Z,85.64
2019-02-12T03:34:02.218Z,85.79
2019-02-12T03:38:56.770Z,85.59
2019-02-12T03:43:51.431Z,85.03
2019-02-12T03:48:46.018Z,85.03
2019-02-12T03:53:40.602Z,85.11
2019-02-12T03:58:35.608Z,85.18
2019-02-12T04:03:31.811Z,84.01
2019-02-12T04:08:26.397Z,84.53
2019-02-12T04:13:21.067Z,84.08
2019-02-12T04:18:15.667Z,83.59
2019-02-12T04:23:10.256Z,83.85
2019-02-12T04:28:04.840Z,84.14
2019-02-12T04:32:59.436Z,84.11
2019-02-12T04:37:54.012Z,84.47
2019-02-12T04:42:48.612Z,84.64
2019-02-12T04:47:43.175Z,84.27
2019-02-12T04:52:37.773Z,85.19
2019-02-12T04:57:32.380Z,85.80
2019-02-12T05:02:26.968Z,85.45
2019-02-12T05:07:21.539Z,85.71
2019-02-12T05:12:18.972Z,85.34
2019-02-12T05:17:13.533Z,84.89
2019-02-12T05:22:08.125Z,85.12
2019-02-12T05:27:02.704Z,85.92
2019-02-12T05:31:57.298Z,86.99
2019-02-12T05:36:51.902Z,86.97
2019-02-12T05:41:46.566Z,87.02
2019-02-12T05:46:41.174Z,86.94
2019-02-12T05:51:35.770Z,86.56
2019-02-12T05:56:30.370Z,86.84
2019-02-12T06:01:24.949Z,86.62
2019-02-12T06:06:19.538Z,86.39
2019-02-12T06:11:14.136Z,86.53
2019-02-12T06:16:08.723Z,86.40
2019-02-12T06:21:03.373Z,86.40
2019-02-12T06:25:57.980Z,85.95
2019-02-12T06:30:52.576Z,85.61
2019-02-12T06:35:47.171Z,85.40
2019-02-12T06:40:41.825Z,84.80
2019-02-12T06:45:36.422Z,84.09
2019-02-12T06:50:31.008Z,83.58
2019-02-12T06:55:25.874Z,83.44
2019-02-12T07:00:20.551Z,83.08
2019-02-12T07:05:15.163Z,82.93
2019-02-12T07:10:10.783Z,82.92
2019-02-12T07:15:09.993Z,82.87
2019-02-12T07:20:18.018Z,82.45
2019-02-12T07:25:43.653Z,82.14
2019-02-12T07:31:12.642Z,81.64
2019-02-12T07:36:20.496Z,80.72
2019-02-12T07:41:37.518Z,80.46
2019-02-12T07:46:39.660Z,80.06
2019-02-12T07:52:10.535Z,79.18
2019-02-12T07:57:20.682Z,78.68
2019-02-12T08:02:39.463Z,78.27
2019-02-12T08:08:13.444Z,77.79
2019-02-12T08:13:24.324Z,76.99
2019-02-12T08:18:50.136Z,74.99
2019-02-12T08:24:11.827Z,75.15
2019-02-12T08:29:22.593Z,73.71
2019-02-12T08:34:45.602Z,74.02
2019-02-12T08:40:20.073Z,73.58
2019-02-12T08:45:52.862Z,73.80
2019-02-12T08:51:18.783Z,74.41
2019-02-12T08:56:25.775Z,73.50
2019-02-12T09:01:52.153Z,71.68
2019-02-12T09:07:16.340Z,68.32
2019-02-12T09:12:40.528Z,67.79
2019-02-12T09:17:52.100Z,67.57
2019-02-12T09:22:57.642Z,66.59
2019-02-12T09:28:29.183Z,66.73
2019-02-12T09:33:42.327Z,67.41
2019-02-12T09:39:18.045Z,67.46
2019-02-12T09:44:44.372Z,65.27
2019-02-12T09:49:56.705Z,65.71
2019-02-12T10:00:46.690Z,68.05
2019-02-12T10:06:03.569Z,65.66
2019-02-12T10:11:20.357Z,65.56
2019-02-12T10:16:31.050Z,64.73
2019-02-12T10:21:49.586Z,64.96
2019-02-12T10:27:03.396Z,63.75
2019-02-12T10:31:56.586Z,62.97
2019-02-12T10:36:51.157Z,60.53
2019-02-12T10:41:46.166Z,59.40
2019-02-12T10:46:42.375Z,57.92
2019-02-12T10:51:39.617Z,59.16
2019-02-12T10:56:34.405Z,57.85
2019-02-12T11:01:28.985Z,58.28
2019-02-12T11:06:23.667Z,59.19
2019-02-12T11:11:18.454Z,57.40
2019-02-12T11:16:13.150Z,57.50
2019-02-12T11:21:11.951Z,55.37
2019-02-12T11:26:04.190Z,56.27
2019-02-12T11:30:58.956Z,58.48
2019-02-12T11:35:53.635Z,56.66
2019-02-12T11:40:49.293Z,57.41
2019-02-12T11:45:44.252Z,57.68
2019-02-12T11:50:39.065Z,57.63
2019-02-12T11:55:34.107Z,58.10
2019-02-12T12:00:30.574Z,58.91
2019-02-12T12:05:25.140Z,58.06
2019-02-12T12:10:19.927Z,58.60
2019-02-12T12:15:16.655Z,58.30
2019-02-12T12:20:15.810Z,55.24
2019-02-12T12:25:12.601Z,55.08
2019-02-12T12:30:11.572Z,54.46
2019-02-12T12:35:11.678Z,54.06
2019-02-12T12:40:10.600Z,53.71
2019-02-12T12:45:09.748Z,54.08
2019-02-12T12:50:06.353Z,53.25
2019-02-12T12:55:01.364Z,54.22
2019-02-12T12:59:56.480Z,54.25
2019-02-12T13:04:51.429Z,54.46
2019-02-12T13:09:46.655Z,56.11
2019-02-12T13:14:41.564Z,57.25
2019-02-12T13:19:36.241Z,57.27
2019-02-12T13:24:30.915Z,56.75
2019-02-12T13:29:25.754Z,56.91
2019-02-12T13:34:20.360Z,53.29
2019-02-12T13:39:15.323Z,52.60
2019-02-12T13:44:09.944Z,52.35
2019-02-12T13:49:09.574Z,52.90
2019-02-12T13:54:05.386Z,47.46
2019-02-12T13:58:59.969Z,46.46
2019-02-12T14:03:54.836Z,47.55
2019-02-12T14:08:49.639Z,47.70
2019-02-12T14:13:44.851Z,47.76
2019-02-12T14:18:40.112Z,47.95
2019-02-12T14:23:37.329Z,48.05
2019-02-12T14:28:32.364Z,48.32
2019-02-12T14:33:28.080Z,47.17
2019-02-12T14:38:23.346Z,48.07
2019-02-12T14:43:18.454Z,48.47
2019-02-12T14:48:13.438Z,48.09
2019-02-12T14:53:08.643Z,47.47
2019-02-12T14:58:03.965Z,48.15
2019-02-12T15:03:05.772Z,49.44
2019-02-12T15:08:01.602Z,48.83
2019-02-12T15:12:56.642Z,49.34
2019-02-12T15:17:51.539Z,48.17
2019-02-12T15:22:48.429Z,48.13
2019-02-12T15:27:43.335Z,47.29
2019-02-12T15:32:38.041Z,46.84
2019-02-12T15:37:32.833Z,47.00
2019-02-12T15:42:27.599Z,47.34
2019-02-12T15:47:22.474Z,47.94
2019-02-12T15:52:17.272Z,48.91
2019-02-12T15:57:13.563Z,49.68
2019-02-12T16:02:13.909Z,49.42
2019-02-12T16:07:08.595Z,50.28
2019-02-12T16:12:06.125Z,50.31
2019-02-12T16:17:01.108Z,50.75
2019-02-12T16:21:57.200Z,51.42
2019-02-12T16:26:51.835Z,51.94
2019-02-12T16:31:47.022Z,51.95
2019-02-12T16:36:42.826Z,52.63
2019-02-12T16:41:37.760Z,53.28
2019-02-12T16:46:32.341Z,53.99
2019-02-12T16:51:26.934Z,53.08
2019-02-12T16:56:21.547Z,54.28
2019-02-12T17:01:16.110Z,55.09
2019-02-12T17:06:10.907Z,55.87
2019-02-12T17:11:05.536Z,56.17
2019-02-12T17:16:00.141Z,56.53
2019-02-12T17:20:54.716Z,57.17
2019-02-12T17:25:49.308Z,57.34
2019-02-12T17:30:43.912Z,57.45
2019-02-12T17:35:38.537Z,58.01
2019-02-12T17:40:33.138Z,58.71
2019-02-12T17:45:27.722Z,58.86
2019-02-12T17:50:22.309Z,58.96
2019-02-12T17:55:16.887Z,59.71
2019-02-12T18:00:19.516Z,59.52
2019-02-12T18:05:14.510Z,60.98
2019-02-12T18:10:11.865Z,60.62
2019-02-12T18:15:14.987Z,60.35
2019-02-12T18:20:13.673Z,60.89
2019-02-12T18:25:10.884Z,62.02
2019-02-12T18:30:12.353Z,61.84
2019-02-12T18:35:08.823Z,62.21
2019-02-12T18:40:04.857Z,61.75
2019-02-12T18:44:59.464Z,62.30
2019-02-12T18:49:54.072Z,63.10
2019-02-12T18:54:48.671Z,61.92
2019-02-12T18:59:43.240Z,61.72
2019-02-12T19:04:37.831Z,61.54
2019-02-12T19:09:32.411Z,62.07
2019-02-12T19:14:26.992Z,62.03
2019-02-12T19:19:21.576Z,62.48
2019-02-12T19:24:16.161Z,62.33
2019-02-12T19:29:10.754Z,62.57
2019-02-12T19:34:05.541Z,62.49
2019-02-12T19:39:00.147Z,62.84
2019-02-12T19:43:54.757Z,62.91
2019-02-12T19:48:49.354Z,63.06
2019-02-12T19:53:43.941Z,63.51
2019-02-12T19:58:38.552Z,64.01
2019-02-12T20:03:33.801Z,64.35
2019-02-12T20:08:28.422Z,64.62
2019-02-12T20:13:23.008Z,63.37
2019-02-12T20:18:17.598Z,63.92
2019-02-12T20:23:12.179Z,64.35
2019-02-12T20:28:06.773Z,64.12
2019-02-12T20:33:01.387Z,65.86
2019-02-12T20:37:55.951Z,65.33
2019-02-12T20:42:50.533Z,66.40
2019-02-12T20:47:45.194Z,67.36
2019-02-12T20:52:39.775Z,66.98
2019-02-12T20:57:34.379Z,68.54
2019-02-12T21:02:28.966Z,68.97
2019-02-12T21:07:23.555Z,69.89
2019-02-12T21:12:18.142Z,70.88
2019-02-12T21:17:12.739Z,71.79
2019-02-12T21:22:07.324Z,72.07
2019-02-12T21:27:01.927Z,71.96
2019-02-12T21:31:56.511Z,72.17
2019-02-12T21:36:51.099Z,72.28
2019-02-12T21:41:45.697Z,72.76
2019-02-12T21:46:40.290Z,73.51
2019-02-12T21:51:34.936Z,74.47
2019-02-12T21:56:29.527Z,74.33
2019-02-12T22:01:24.122Z,74.78
2019-02-12T22:06:18.704Z,75.55
2019-02-12T22:11:13.281Z,76.13
2019-02-12T22:16:07.891Z,76.37
2019-02-12T22:21:02.456Z,76.85
2019-02-12T22:25:57.063Z,76.41
2019-02-12T22:30:51.640Z,77.55
2019-02-12T22:35:46.232Z,77.31
2019-02-12T22:40:40.804Z,77.73
2019-02-12T22:45:35.402Z,76.29
2019-02-12T22:50:30.052Z,76.86
2019-02-12T22:55:24.642Z,77.39
2019-02-12T23:00:40.601Z,77.24
2019-02-12T23:05:35.168Z,77.25
2019-02-12T23:10:29.775Z,78.27
2019-02-12T23:15:24.333Z,78.72
2019-02-12T23:20:18.930Z,78.71
2019-02-12T23:25:13.534Z,78.19
2019-02-12T23:30:12.275Z,77.84
2019-02-12T23:35:07.589Z,78.55
2019-02-12T23:40:02.189Z,78.25
2019-02-12T23:44:56.755Z,79.18
2019-02-12T23:49:51.430Z,79.28
2019-02-12T23:54:46.000Z,79.46
2019-02-12T23:59:40.589Z,80.29
